createdAt,value
2019-02-15T00:00:57.798Z,87.68
2019-02-15T00:03:27.138Z,87.29
2019-02-15T00:05:56.652Z,87.38
2019-02-15T00:08:25.971Z,87.32
2019-02-15T00:10:55.363Z,87.38
2019-02-15T00:13:24.751Z,87.31
2019-02-15T00:15:54.163Z,87.52
2019-02-15T00:18:30.575Z,87.96
2019-02-15T00:21:17.576Z,87.96
2019-02-15T00:23:46.939Z,87.81
2019-02-15T00:26:16.763Z,87.81
2019-02-15T00:28:46.427Z,87.88
2019-02-15T00:31:18.584Z,88.19
2019-02-15T00:33:47.878Z,88.41
2019-02-15T00:36:17.243Z,88.87
2019-02-15T00:38:46.526Z,88.73
2019-02-15T00:41:15.819Z,88.57
2019-02-15T00:43:45.063Z,88.38
2019-02-15T00:46:45.241Z,88.59
2019-02-15T00:49:21.599Z,88.62
2019-02-15T00:52:13.151Z,88.90
2019-02-15T00:55:07.158Z,88.86
2019-02-15T00:57:58.392Z,88.97
2019-02-15T01:00:45.380Z,88.93
2019-02-15T01:03:32.489Z,89.05
2019-02-15T01:06:09.738Z,89.28
2019-02-15T01:08:59.680Z,89.40
2019-02-15T01:11:37.562Z,89.48
2019-02-15T01:14:07.006Z,89.66
2019-02-15T01:16:36.434Z,89.65
2019-02-15T01:19:05.710Z,89.63
2019-02-15T01:21:36.837Z,89.54
2019-02-15T01:24:06.772Z,89.52
2019-02-15T01:26:44.293Z,89.47
2019-02-15T01:29:35.363Z,89.51
2019-02-15T01:32:27.952Z,89.83
2019-02-15T01:35:09.441Z,89.92
2019-02-15T01:38:08.461Z,89.92
2019-02-15T01:40:55.247Z,89.82
2019-02-15T01:43:58.533Z,90.07
2019-02-15T01:46:43.639Z,90.11
2019-02-15T01:49:13.529Z,90.12
2019-02-15T01:51:42.965Z,90.11
2019-02-15T01:54:12.306Z,90.05
2019-02-15T01:56:41.672Z,90.11
2019-02-15T01:59:11.198Z,90.06
2019-02-15T02:01:40.645Z,90.25
2019-02-15T02:04:10.250Z,91.05
2019-02-15T02:06:39.603Z,90.98
2019-02-15T02:09:09.104Z,90.59
2019-02-15T02:11:38.798Z,90.39
2019-02-15T02:14:08.238Z,90.34
2019-02-15T02:16:37.644Z,90.27
2019-02-15T02:19:06.983Z,90.47
2019-02-15T02:21:37.013Z,90.98
2019-02-15T02:24:06.269Z,91.16
2019-02-15T02:26:35.597Z,90.86
2019-02-15T02:29:04.958Z,90.72
2019-02-15T02:31:34.228Z,90.69
2019-02-15T02:34:03.480Z,90.79
2019-02-15T02:36:54.579Z,90.95
2019-02-15T02:39:24.108Z,91.12
2019-02-15T02:41:53.541Z,91.11
2019-02-15T02:44:22.937Z,91.21
2019-02-15T02:46:52.291Z,91.42
2019-02-15T02:49:21.695Z,91.65
2019-02-15T02:51:50.987Z,91.63
2019-02-15T02:54:20.350Z,91.49
2019-02-15T02:56:49.715Z,91.45
2019-02-15T02:59:18.944Z,91.68
2019-02-15T03:01:48.334Z,91.60
2019-02-15T03:04:18.035Z,91.39
2019-02-15T03:06:47.513Z,91.41
2019-02-15T03:09:16.880Z,91.45
2019-02-15T03:11:46.177Z,91.48
2019-02-15T03:14:15.491Z,91.52
2019-02-15T03:16:44.934Z,91.62
2019-02-15T03:19:14.340Z,91.63
2019-02-15T03:21:43.638Z,91.64
2019-02-15T03:24:13.019Z,91.74
2019-02-15T03:26:42.797Z,91.94
2019-02-15T03:29:12.046Z,92.02
2019-02-15T03:31:41.462Z,92.07
2019-02-15T03:34:10.856Z,92.38
2019-02-15T03:37:04.239Z,92.25
2019-02-15T03:39:39.603Z,92.04
2019-02-15T03:42:11.069Z,92.07
2019-02-15T03:44:40.481Z,92.26
2019-02-15T03:47:09.862Z,92.26
2019-02-15T03:49:39.129Z,92.22
2019-02-15T03:52:08.413Z,92.26
2019-02-15T03:54:37.933Z,92.32
2019-02-15T03:57:07.511Z,92.37
2019-02-15T03:59:37.095Z,92.39
2019-02-15T04:02:06.439Z,92.41
2019-02-15T04:04:35.891Z,92.56
2019-02-15T04:07:05.424Z,92.68
2019-02-15T04:09:34.907Z,92.64
2019-02-15T04:12:04.315Z,92.67
2019-02-15T04:14:33.669Z,92.76
2019-02-15T04:17:02.998Z,92.80
2019-02-15T04:19:32.292Z,92.82
2019-02-15T04:22:02.120Z,92.91
2019-02-15T04:24:31.404Z,92.95
2019-02-15T04:27:00.962Z,92.97
2019-02-15T04:29:30.230Z,93.01
2019-02-15T04:31:59.593Z,93.10
2019-02-15T04:34:28.992Z,93.11
2019-02-15T04:36:58.346Z,93.23
2019-02-15T04:39:27.595Z,93.29
2019-02-15T04:41:56.969Z,93.38
2019-02-15T04:44:26.391Z,93.31
2019-02-15T04:46:55.735Z,93.30
2019-02-15T04:49:25.143Z,93.34
2019-02-15T04:51:54.588Z,93.42
2019-02-15T04:54:24.044Z,93.48
2019-02-15T04:56:53.416Z,93.81
2019-02-15T04:59:23.114Z,93.79
2019-02-15T05:01:52.561Z,93.75
2019-02-15T05:04:22.307Z,93.67
2019-02-15T05:06:51.621Z,93.62
2019-02-15T05:09:21.060Z,93.65
2019-02-15T05:11:51.176Z,93.64
2019-02-15T05:14:20.430Z,93.77
2019-02-15T05:16:49.967Z,93.93
2019-02-15T05:19:19.333Z,94.24
2019-02-15T05:21:48.692Z,94.31
2019-02-15T05:24:18.080Z,94.30
2019-02-15T05:26:47.499Z,94.22
2019-02-15T05:29:16.881Z,94.16
2019-02-15T05:31:46.231Z,94.13
2019-02-15T05:34:15.560Z,94.31
2019-02-15T05:36:44.956Z,94.39
2019-02-15T05:39:14.295Z,94.29
2019-02-15T05:41:43.702Z,94.08
2019-02-15T05:44:13.122Z,94.04
2019-02-15T05:46:42.430Z,94.06
2019-02-15T05:49:11.884Z,94.02
2019-02-15T05:51:41.205Z,94.08
2019-02-15T05:54:10.814Z,94.09
2019-02-15T05:56:40.096Z,94.28
2019-02-15T05:59:09.890Z,94.58
2019-02-15T06:01:39.639Z,94.63
2019-02-15T06:04:09.346Z,94.61
2019-02-15T06:06:38.719Z,94.53
2019-02-15T06:09:08.225Z,94.57
2019-02-15T06:11:37.612Z,94.50
2019-02-15T06:14:06.974Z,94.65
2019-02-15T06:16:36.510Z,94.81
2019-02-15T06:19:05.942Z,94.92
2019-02-15T06:21:35.325Z,94.79
2019-02-15T06:24:04.860Z,94.66
2019-02-15T06:26:34.173Z,94.47
2019-02-15T06:29:03.540Z,94.50
2019-02-15T06:31:32.935Z,94.53
2019-02-15T06:34:02.253Z,94.69
2019-02-15T06:36:35.732Z,94.71
2019-02-15T06:39:07.493Z,94.62
2019-02-15T06:41:36.792Z,94.61
2019-02-15T06:44:06.155Z,94.64
2019-02-15T06:46:35.585Z,94.51
2019-02-15T06:49:04.944Z,94.59
2019-02-15T06:51:34.306Z,94.53
2019-02-15T06:54:03.674Z,94.45
2019-02-15T06:56:33.055Z,94.26
2019-02-15T06:59:17.304Z,94.18
2019-02-15T07:01:54.854Z,94.36
2019-02-15T07:04:37.539Z,94.41
2019-02-15T07:07:06.841Z,94.48
2019-02-15T07:09:36.165Z,94.58
2019-02-15T07:12:05.499Z,94.52
2019-02-15T07:14:34.872Z,94.17
2019-02-15T07:17:04.307Z,94.12
2019-02-15T07:19:34.458Z,94.11
2019-02-15T07:22:03.759Z,94.16
2019-02-15T07:24:33.125Z,94.35
2019-02-15T07:27:04.567Z,94.23
2019-02-15T07:29:34.254Z,94.08
2019-02-15T07:32:03.575Z,94.07
2019-02-15T07:34:32.890Z,94.19
2019-02-15T07:37:02.264Z,94.24
2019-02-15T07:39:31.534Z,94.37
2019-02-15T07:42:00.949Z,94.33
2019-02-15T07:44:30.441Z,94.19
2019-02-15T07:46:59.793Z,94.15
2019-02-15T07:49:29.127Z,94.18
2019-02-15T07:51:58.435Z,94.19
2019-02-15T07:54:27.858Z,94.21
2019-02-15T07:56:57.128Z,94.12
2019-02-15T07:59:26.484Z,94.10
2019-02-15T08:02:01.663Z,93.91
2019-02-15T08:04:26.773Z,93.79
2019-02-15T08:06:56.000Z,93.75
2019-02-15T08:09:32.782Z,93.66
2019-02-15T08:12:02.003Z,93.63
2019-02-15T08:14:31.198Z,93.52
2019-02-15T08:17:00.431Z,93.42
2019-02-15T08:19:31.793Z,93.37
2019-02-15T08:22:01.005Z,93.40
2019-02-15T08:24:30.250Z,93.27
2019-02-15T08:26:59.467Z,93.19
2019-02-15T08:29:28.794Z,92.93
2019-02-15T08:31:58.002Z,92.86
2019-02-15T08:34:27.345Z,92.89
2019-02-15T08:36:56.486Z,92.80
2019-02-15T08:39:25.826Z,92.51
2019-02-15T08:42:01.228Z,92.42
2019-02-15T08:44:26.196Z,92.45
2019-02-15T08:46:55.682Z,92.41
2019-02-15T08:49:43.997Z,92.43
2019-02-15T08:52:13.299Z,92.11
2019-02-15T08:54:42.550Z,91.81
2019-02-15T08:57:11.793Z,91.74
2019-02-15T08:59:41.035Z,91.54
2019-02-15T09:02:21.799Z,91.47
2019-02-15T09:05:21.480Z,91.23
2019-02-15T09:08:09.833Z,90.75
2019-02-15T09:10:58.093Z,90.90
2019-02-15T09:13:27.365Z,90.78
2019-02-15T09:15:56.565Z,90.38
2019-02-15T09:18:25.810Z,90.09
2019-02-15T09:20:55.146Z,89.94
2019-02-15T09:23:24.384Z,89.58
2019-02-15T09:25:53.634Z,89.52
2019-02-15T09:28:30.519Z,89.20
2019-02-15T09:30:59.920Z,88.87
2019-02-15T09:33:29.195Z,88.56
2019-02-15T09:35:58.415Z,88.35
2019-02-15T09:38:27.613Z,88.00
2019-02-15T09:40:57.947Z,87.79
2019-02-15T09:43:27.197Z,87.81
2019-02-15T09:45:56.452Z,87.33
2019-02-15T09:48:25.678Z,86.83
2019-02-15T09:50:55.007Z,86.63
2019-02-15T09:53:24.350Z,86.59
2019-02-15T09:55:54.294Z,86.17
2019-02-15T09:58:25.963Z,85.73
2019-02-15T10:00:58.554Z,85.40
2019-02-15T10:03:30.668Z,84.89
2019-02-15T10:05:59.949Z,84.46
2019-02-15T10:08:29.212Z,84.20
2019-02-15T10:10:59.497Z,83.66
2019-02-15T10:13:28.720Z,83.31
2019-02-15T10:15:57.942Z,82.99
2019-02-15T10:18:27.226Z,82.20
2019-02-15T10:20:56.620Z,82.08
2019-02-15T10:23:25.899Z,81.63
2019-02-15T10:25:56.503Z,81.08
2019-02-15T10:28:25.780Z,80.71
2019-02-15T10:30:56.019Z,80.28
2019-02-15T10:33:25.405Z,79.83
2019-02-15T10:35:54.725Z,79.49
2019-02-15T10:38:24.021Z,79.12
2019-02-15T10:40:53.576Z,78.63
2019-02-15T10:43:22.936Z,78.39
2019-02-15T10:45:52.398Z,77.77
2019-02-15T10:48:21.608Z,77.16
2019-02-15T10:50:50.932Z,77.14
2019-02-15T10:53:20.174Z,77.01
2019-02-15T10:55:49.432Z,76.65
2019-02-15T10:58:18.753Z,75.79
2019-02-15T11:00:48.034Z,74.76
2019-02-15T11:03:17.381Z,74.88
2019-02-15T11:05:46.741Z,74.58
2019-02-15T11:08:15.926Z,73.35
2019-02-15T11:10:45.126Z,72.98
2019-02-15T11:13:14.452Z,72.88
2019-02-15T11:15:43.640Z,72.33
2019-02-15T11:18:13.051Z,71.80
2019-02-15T11:20:42.288Z,70.99
2019-02-15T11:23:12.622Z,70.28
2019-02-15T11:25:41.950Z,69.92
2019-02-15T11:28:11.196Z,69.54
2019-02-15T11:30:40.474Z,69.47
2019-02-15T11:33:09.995Z,69.11
2019-02-15T11:35:39.339Z,68.62
2019-02-15T11:38:08.671Z,67.97
2019-02-15T11:40:37.981Z,67.17
2019-02-15T11:43:07.351Z,66.90
2019-02-15T11:45:36.580Z,66.71
2019-02-15T11:48:05.969Z,66.59
2019-02-15T11:50:35.351Z,65.87
2019-02-15T11:53:04.811Z,65.09
2019-02-15T11:55:34.127Z,64.00
2019-02-15T11:58:03.421Z,64.04
2019-02-15T12:00:34.369Z,63.31
2019-02-15T12:03:03.723Z,62.83
2019-02-15T12:05:32.999Z,62.50
2019-02-15T12:08:02.365Z,61.97
2019-02-15T12:10:31.654Z,61.17
2019-02-15T12:13:00.893Z,60.33
2019-02-15T12:15:30.193Z,59.61
2019-02-15T12:17:59.908Z,58.81
2019-02-15T12:20:29.225Z,59.02
2019-02-15T12:22:58.626Z,58.61
2019-02-15T12:25:27.851Z,57.84
2019-02-15T12:27:57.148Z,57.06
2019-02-15T12:30:26.425Z,56.93
2019-02-15T12:32:55.873Z,56.64
2019-02-15T12:35:25.123Z,57.00
2019-02-15T12:37:54.355Z,57.00
2019-02-15T12:40:23.699Z,56.61
2019-02-15T12:42:53.151Z,56.34
2019-02-15T12:45:22.426Z,55.69
2019-02-15T12:47:51.646Z,55.34
2019-02-15T12:50:20.900Z,55.68
2019-02-15T12:52:50.101Z,55.19
2019-02-15T12:55:19.422Z,55.26
2019-02-15T12:57:48.648Z,55.02
2019-02-15T13:00:37.058Z,54.60
2019-02-15T13:03:09.520Z,54.34
2019-02-15T13:05:57.824Z,53.81
2019-02-15T13:08:29.239Z,53.74
2019-02-15T13:10:58.739Z,53.54
2019-02-15T13:13:29.077Z,53.24
2019-02-15T13:15:58.312Z,53.25
2019-02-15T13:18:27.526Z,53.08
2019-02-15T13:20:56.958Z,52.80
2019-02-15T13:23:26.243Z,52.68
2019-02-15T13:25:55.573Z,52.81
2019-02-15T13:28:24.752Z,52.82
2019-02-15T13:30:54.252Z,52.68
2019-02-15T13:33:23.578Z,52.38
2019-02-15T13:35:52.934Z,52.56
2019-02-15T13:38:22.363Z,52.18
2019-02-15T13:40:52.571Z,51.88
2019-02-15T13:43:22.016Z,51.68
2019-02-15T13:45:51.334Z,51.58
2019-02-15T13:48:20.569Z,51.34
2019-02-15T13:50:49.897Z,51.01
2019-02-15T13:53:20.367Z,50.41
2019-02-15T13:55:49.955Z,50.43
2019-02-15T13:58:19.300Z,50.36
2019-02-15T14:00:48.531Z,49.95
2019-02-15T14:03:17.899Z,49.70
2019-02-15T14:05:47.483Z,51.82
2019-02-15T14:08:16.806Z,51.17
2019-02-15T14:10:46.054Z,46.45
2019-02-15T14:13:15.423Z,41.42
2019-02-15T14:15:44.849Z,36.33
2019-02-15T14:18:14.179Z,32.94
2019-02-15T14:20:43.582Z,31.24
2019-02-15T14:23:14.106Z,29.25
2019-02-15T14:25:43.528Z,27.73
2019-02-15T14:28:31.881Z,26.44
2019-02-15T14:31:01.262Z,25.96
2019-02-15T14:33:30.715Z,24.55
2019-02-15T14:36:00.436Z,24.37
2019-02-15T14:38:37.062Z,24.01
2019-02-15T14:41:06.452Z,22.95
2019-02-15T14:43:35.753Z,22.26
2019-02-15T14:46:05.052Z,19.64
2019-02-15T14:48:34.330Z,20.64
2019-02-15T14:51:03.622Z,21.01
2019-02-15T14:53:33.093Z,21.18
2019-02-15T14:56:03.349Z,20.74
2019-02-15T14:58:32.855Z,20.93
2019-02-15T15:01:02.204Z,21.30
2019-02-15T15:03:31.825Z,21.27
2019-02-15T15:06:01.129Z,21.12
2019-02-15T15:08:30.830Z,21.01
2019-02-15T15:11:00.222Z,20.99
2019-02-15T15:13:29.545Z,20.79
2019-02-15T15:15:58.981Z,21.04
2019-02-15T15:18:28.247Z,21.24
2019-02-15T15:20:57.552Z,21.45
2019-02-15T15:23:26.957Z,21.45
2019-02-15T15:25:56.437Z,21.70
2019-02-15T15:28:25.739Z,21.71
2019-02-15T15:30:55.210Z,21.71
2019-02-15T15:33:24.724Z,22.18
2019-02-15T15:35:54.058Z,23.80
2019-02-15T15:38:23.418Z,25.44
2019-02-15T15:40:52.747Z,26.29
2019-02-15T15:43:22.019Z,26.58
2019-02-15T15:45:51.266Z,27.01
2019-02-15T15:48:22.761Z,27.44
2019-02-15T15:50:51.974Z,27.87
2019-02-15T15:53:21.462Z,28.43
2019-02-15T15:55:50.938Z,29.36
2019-02-15T15:58:20.217Z,29.83
2019-02-15T16:00:49.699Z,30.46
2019-02-15T16:03:19.099Z,31.29
2019-02-15T16:05:48.495Z,32.55
2019-02-15T16:08:17.856Z,33.90
2019-02-15T16:10:47.333Z,35.38
2019-02-15T16:13:16.872Z,36.64
2019-02-15T16:15:46.395Z,38.17
2019-02-15T16:18:15.844Z,39.20
2019-02-15T16:20:45.193Z,40.24
2019-02-15T16:23:14.767Z,41.32
2019-02-15T16:25:44.145Z,42.19
2019-02-15T16:28:13.678Z,43.19
2019-02-15T16:30:43.275Z,44.28
2019-02-15T16:33:12.715Z,45.36
2019-02-15T16:35:42.241Z,46.31
2019-02-15T16:38:11.626Z,47.15
2019-02-15T16:40:41.210Z,48.09
2019-02-15T16:43:10.932Z,49.09
2019-02-15T16:45:41.625Z,49.97
2019-02-15T16:48:11.097Z,50.92
2019-02-15T16:50:40.512Z,51.92
2019-02-15T16:53:09.991Z,52.77
2019-02-15T16:55:39.615Z,53.55
2019-02-15T16:58:09.000Z,54.38
2019-02-15T17:00:38.707Z,55.19
2019-02-15T17:03:08.330Z,56.19
2019-02-15T17:05:37.939Z,57.10
2019-02-15T17:08:07.455Z,57.93
2019-02-15T17:10:37.577Z,58.79
2019-02-15T17:13:07.161Z,59.67
2019-02-15T17:15:36.731Z,60.49
2019-02-15T17:18:06.380Z,61.31
2019-02-15T17:20:36.077Z,62.04
2019-02-15T17:23:05.664Z,62.89
2019-02-15T17:25:35.210Z,63.79
2019-02-15T17:28:04.639Z,64.60
2019-02-15T17:30:34.122Z,65.23
2019-02-15T17:33:03.644Z,65.87
2019-02-15T17:35:33.325Z,66.45
2019-02-15T17:38:03.171Z,67.10
2019-02-15T17:40:32.730Z,68.18
2019-02-15T17:43:02.379Z,68.58
2019-02-15T17:45:32.480Z,69.23
2019-02-15T17:48:02.054Z,69.69
2019-02-15T17:50:31.488Z,70.37
2019-02-15T17:53:01.142Z,70.75
2019-02-15T17:55:30.725Z,71.18
2019-02-15T17:58:00.696Z,71.84
2019-02-15T18:00:31.871Z,72.31
2019-02-15T18:03:01.472Z,72.92
2019-02-15T18:05:31.029Z,73.23
2019-02-15T18:08:00.622Z,73.73
2019-02-15T18:10:30.307Z,74.06
2019-02-15T18:13:00.318Z,74.35
2019-02-15T18:15:29.881Z,74.53
2019-02-15T18:17:59.477Z,74.73
2019-02-15T18:20:29.124Z,74.86
2019-02-15T18:22:58.754Z,74.84
2019-02-15T18:25:28.472Z,75.03
2019-02-15T18:27:57.963Z,75.11
2019-02-15T18:30:27.613Z,75.21
2019-02-15T18:32:57.276Z,75.27
2019-02-15T18:35:26.940Z,75.44
2019-02-15T18:37:56.595Z,75.58
2019-02-15T18:40:26.201Z,75.71
2019-02-15T18:42:55.857Z,75.82
2019-02-15T18:45:25.493Z,76.03
2019-02-15T18:47:55.204Z,75.94
2019-02-15T18:50:24.821Z,75.94
2019-02-15T18:52:54.531Z,76.22
2019-02-15T18:55:24.149Z,76.03
2019-02-15T18:57:53.911Z,76.10
2019-02-15T19:00:23.498Z,76.38
2019-02-15T19:02:53.357Z,76.31
2019-02-15T19:05:23.092Z,76.27
2019-02-15T19:07:52.913Z,76.48
2019-02-15T19:10:22.649Z,76.41
2019-02-15T19:12:52.287Z,76.30
2019-02-15T19:15:22.029Z,76.25
2019-02-15T19:17:51.784Z,76.23
2019-02-15T19:20:21.483Z,76.23
2019-02-15T19:22:51.129Z,76.41
2019-02-15T19:25:21.031Z,76.12
2019-02-15T19:27:50.683Z,75.99
2019-02-15T19:30:22.000Z,75.99
2019-02-15T19:32:52.198Z,76.05
2019-02-15T19:35:23.428Z,76.16
2019-02-15T19:37:54.490Z,75.95
2019-02-15T19:40:23.966Z,75.81
2019-02-15T19:42:54.374Z,75.73
2019-02-15T19:45:24.314Z,75.50
2019-02-15T19:47:53.980Z,75.46
2019-02-15T19:50:23.536Z,75.46
2019-02-15T19:52:53.345Z,75.40
2019-02-15T19:55:23.117Z,75.25
2019-02-15T19:57:53.096Z,75.12
2019-02-15T20:00:22.742Z,75.07
2019-02-15T20:02:52.404Z,75.19
2019-02-15T20:05:22.170Z,75.17
2019-02-15T20:07:51.894Z,74.95
2019-02-15T20:10:22.199Z,74.78
2019-02-15T20:12:53.147Z,74.83
2019-02-15T20:15:22.697Z,74.62
2019-02-15T20:17:52.397Z,74.63
2019-02-15T20:20:22.010Z,74.51
2019-02-15T20:22:51.698Z,74.32
2019-02-15T20:25:21.653Z,74.37
2019-02-15T20:27:51.942Z,74.36
2019-02-15T20:30:21.876Z,74.35
2019-02-15T20:32:51.636Z,74.27
2019-02-15T20:35:21.457Z,74.16
2019-02-15T20:37:52.171Z,74.11
2019-02-15T20:40:22.283Z,74.21
2019-02-15T20:42:51.956Z,74.11
2019-02-15T20:45:22.006Z,73.94
2019-02-15T20:47:51.705Z,73.86
2019-02-15T20:50:21.624Z,73.78
2019-02-15T20:52:51.277Z,73.72
2019-02-15T20:55:21.005Z,73.70
2019-02-15T20:57:50.693Z,73.73
2019-02-15T21:00:22.654Z,73.72
2019-02-15T21:02:52.451Z,73.80
2019-02-15T21:05:22.057Z,73.91
2019-02-15T21:07:53.992Z,73.52
2019-02-15T21:10:23.676Z,73.26
2019-02-15T21:12:53.355Z,73.20
2019-02-15T21:15:24.327Z,73.10
2019-02-15T21:17:54.076Z,73.01
2019-02-15T21:20:24.669Z,72.87
2019-02-15T21:22:54.650Z,73.00
2019-02-15T21:25:24.641Z,72.89
2019-02-15T21:27:54.288Z,72.93
2019-02-15T21:30:23.890Z,72.99
2019-02-15T21:32:53.476Z,73.03
2019-02-15T21:35:23.236Z,72.91
2019-02-15T21:37:52.827Z,72.80
2019-02-15T21:40:22.563Z,72.69
2019-02-15T21:42:52.353Z,72.63
2019-02-15T21:45:22.096Z,72.45
2019-02-15T21:47:51.813Z,72.18
2019-02-15T21:50:21.392Z,72.07
2019-02-15T21:52:51.103Z,72.13
2019-02-15T21:55:20.794Z,72.18
2019-02-15T21:57:50.512Z,72.21
2019-02-15T22:00:20.309Z,71.87
2019-02-15T22:02:49.870Z,71.94
2019-02-15T22:05:19.416Z,71.68
2019-02-15T22:07:48.950Z,71.39
2019-02-15T22:10:18.522Z,71.28
2019-02-15T22:12:48.097Z,71.28
2019-02-15T22:15:17.777Z,71.36
2019-02-15T22:17:47.270Z,71.45
2019-02-15T22:20:25.973Z,71.42
2019-02-15T22:22:48.241Z,71.31
2019-02-15T22:25:17.447Z,71.46
2019-02-15T22:27:46.731Z,71.46
2019-02-15T22:30:16.128Z,71.43
2019-02-15T22:32:45.576Z,71.50
2019-02-15T22:35:14.900Z,71.72
2019-02-15T22:37:44.178Z,71.54
2019-02-15T22:40:29.943Z,71.46
2019-02-15T22:43:01.178Z,71.65
2019-02-15T22:45:30.589Z,71.72
2019-02-15T22:47:59.817Z,71.68
2019-02-15T22:50:35.659Z,71.79
2019-02-15T22:53:00.331Z,71.71
2019-02-15T22:55:29.536Z,72.32
2019-02-15T22:57:59.222Z,71.99
2019-02-15T23:00:53.291Z,72.06
2019-02-15T23:03:24.511Z,72.14
2019-02-15T23:05:53.868Z,72.25
2019-02-15T23:08:23.193Z,72.35
2019-02-15T23:10:52.528Z,72.53
2019-02-15T23:13:21.748Z,72.67
2019-02-15T23:15:51.012Z,72.53
2019-02-15T23:18:20.490Z,72.69
2019-02-15T23:20:49.894Z,72.70
2019-02-15T23:23:19.277Z,72.69
2019-02-15T23:25:48.471Z,72.70
2019-02-15T23:28:17.764Z,72.77
2019-02-15T23:30:46.938Z,72.92
2019-02-15T23:33:16.316Z,72.92
2019-02-15T23:35:45.635Z,72.96
2019-02-15T23:38:14.960Z,73.07
2019-02-15T23:40:44.193Z,72.89
2019-02-15T23:43:13.553Z,73.06
2019-02-15T23:45:44.917Z,73.35
2019-02-15T23:48:13.841Z,73.52
2019-02-15T23:50:43.153Z,73.67
2019-02-15T23:53:12.367Z,73.60
2019-02-15T23:55:41.559Z,74.06
2019-02-15T23:58:10.810Z,74.03
